Time;durP1;ratioP1;P1;durP2;ratioP2;P2;SDS_P1;SDS_P2;PMS_P1;PMS_P2;Temp;Humidity;BMP_temperature;BMP_pressure;BME280_temperature;BME280_humidity;BME280_pressure;Samples;Min_cycle;Max_cycle;Signal;HPM_P1;HPM_P2
2022/04/04 00:00:43;;;;;;;20.10;7.97;;;2.30;99.90;;;;;;5052331;28;20038;-70
2022/04/04 00:03:09;;;;;;;17.27;8.48;;;2.30;99.90;;;;;;5041568;28;20037;-66
2022/04/04 00:05:36;;;;;;;18.92;8.82;;;2.20;99.90;;;;;;5052432;28;20045;-67
2022/04/04 00:08:01;;;;;;;19.30;9.30;;;2.20;99.90;;;;;;5051001;28;20095;-67
2022/04/04 00:10:27;;;;;;;18.52;8.55;;;2.30;99.90;;;;;;5068034;28;20032;-68
2022/04/04 00:12:53;;;;;;;19.38;7.88;;;2.10;99.90;;;;;;5051274;28;20507;-67
2022/04/04 00:15:18;;;;;;;17.23;8.45;;;2.10;99.90;;;;;;5052005;28;20448;-69
2022/04/04 00:17:45;;;;;;;20.95;8.80;;;2.10;99.90;;;;;;5051501;28;20056;-70
2022/04/04 00:20:11;;;;;;;15.70;7.60;;;2.20;99.90;;;;;;5057050;28;20029;-69
2022/04/04 00:22:37;;;;;;;19.75;8.20;;;2.20;99.90;;;;;;5071318;28;20036;-68
2022/04/04 00:25:05;;;;;;;18.48;8.25;;;2.00;99.90;;;;;;5062337;28;20041;-67
2022/04/04 00:27:30;;;;;;;16.95;7.65;;;2.10;99.90;;;;;;5031926;28;20049;-70
2022/04/04 00:29:57;;;;;;;19.38;8.50;;;2.10;99.90;;;;;;5067483;28;20044;-69
2022/04/04 00:32:22;;;;;;;17.52;8.40;;;2.20;99.90;;;;;;5051434;28;20049;-69
2022/04/04 00:34:48;;;;;;;20.20;8.48;;;2.40;99.90;;;;;;5050741;28;20041;-71
2022/04/04 00:37:13;;;;;;;18.30;8.48;;;2.40;99.90;;;;;;5059501;28;20484;-71
2022/04/04 00:39:39;;;;;;;23.10;8.70;;;2.40;99.90;;;;;;5045008;28;20086;-69
2022/04/04 00:42:06;;;;;;;17.58;8.18;;;2.60;99.90;;;;;;5050330;28;20124;-69
2022/04/04 00:44:32;;;;;;;19.33;8.70;;;2.70;99.90;;;;;;5051321;28;20037;-67
2022/04/04 00:46:57;;;;;;;22.17;9.45;;;2.70;99.90;;;;;;5051984;28;20507;-68
2022/04/04 00:49:23;;;;;;;21.42;10.00;;;2.80;99.90;;;;;;5065844;28;20044;-68
2022/04/04 00:51:49;;;;;;;22.27;10.90;;;2.80;99.90;;;;;;5034012;28;20106;-65
2022/04/04 00:54:14;;;;;;;26.02;10.48;;;3.00;99.90;;;;;;5053881;28;20082;-68
2022/04/04 00:56:40;;;;;;;27.05;11.32;;;2.90;99.90;;;;;;5040577;28;20123;-69
2022/04/04 00:59:07;;;;;;;27.00;12.73;;;2.90;99.90;;;;;;5049859;28;20388;-70
2022/04/04 01:01:33;;;;;;;32.50;14.32;;;2.90;99.90;;;;;;5049571;28;20056;-71
2022/04/04 01:03:59;;;;;;;35.33;15.77;;;2.90;99.90;;;;;;5050083;28;20033;-70
2022/04/04 01:06:24;;;;;;;37.70;16.70;;;2.90;99.90;;;;;;5057493;28;20080;-70
2022/04/04 01:08:50;;;;;;;41.78;17.75;;;3.00;99.90;;;;;;5044530;28;20142;-70
2022/04/04 01:11:16;;;;;;;41.05;19.40;;;3.10;99.90;;;;;;5049384;28;20041;-70
2022/04/04 01:13:50;;;;;;;36.13;18.73;;;3.00;99.90;;;;;;5031944;28;20045;-71
2022/04/04 01:16:16;;;;;;;38.22;20.48;;;3.10;99.90;;;;;;5050299;28;20075;-68
2022/04/04 01:18:42;;;;;;;37.33;20.33;;;3.20;99.90;;;;;;5049450;28;20040;-73
2022/04/04 01:21:09;;;;;;;39.17;19.33;;;3.20;99.90;;;;;;5037142;28;20079;-72
2022/04/04 01:23:40;;;;;;;38.72;19.42;;;3.20;99.90;;;;;;5032589;28;20435;-70
2022/04/04 01:26:07;;;;;;;40.10;19.45;;;3.30;99.90;;;;;;5048746;28;20114;-74
2022/04/04 01:28:33;;;;;;;39.53;19.00;;;3.30;99.90;;;;;;5046202;28;20040;-69
2022/04/04 01:30:59;;;;;;;41.20;19.25;;;3.20;99.90;;;;;;5048703;28;20401;-74
2022/04/04 01:33:25;;;;;;;46.30;19.40;;;3.20;99.90;;;;;;5029641;28;20049;-73
2022/04/04 01:35:51;;;;;;;40.35;19.20;;;3.20;99.90;;;;;;5048794;28;20041;-70
2022/04/04 01:38:17;;;;;;;42.40;20.35;;;3.30;99.90;;;;;;5048052;28;21404;-70
2022/04/04 01:40:42;;;;;;;39.83;19.15;;;3.20;99.90;;;;;;5048676;28;20033;-71
2022/04/04 01:43:10;;;;;;;41.33;17.80;;;3.40;99.90;;;;;;5032278;28;20048;-74
2022/04/04 01:48:20;;;;;;;38.72;18.65;;;3.30;99.90;;;;;;5060076;28;20106;-69
2022/04/04 01:50:45;;;;;;;36.97;17.48;;;3.30;99.90;;;;;;5050246;28;20492;-71
2022/04/04 01:53:26;;;;;;;37.05;17.65;;;3.30;99.90;;;;;;5050138;28;20094;-68
2022/04/04 01:55:52;;;;;;;38.53;19.15;;;3.30;99.90;;;;;;5042619;28;20048;-67
2022/04/04 01:58:18;;;;;;;38.83;18.50;;;3.30;99.90;;;;;;5058424;28;20034;-67
2022/04/04 02:00:44;;;;;;;41.08;19.00;;;3.30;99.90;;;;;;5054575;28;20032;-71
2022/04/04 02:03:10;;;;;;;41.50;19.80;;;3.30;99.90;;;;;;5049272;28;20029;-72
2022/04/04 02:05:36;;;;;;;43.72;20.23;;;3.30;99.90;;;;;;5032802;28;20049;-71
2022/04/04 02:08:02;;;;;;;47.22;19.48;;;3.30;99.90;;;;;;5048185;28;20060;-71
2022/04/04 02:10:29;;;;;;;45.70;19.65;;;3.30;99.90;;;;;;5059858;28;20033;-72
2022/04/04 02:12:55;;;;;;;43.42;20.35;;;3.30;99.90;;;;;;5048899;28;20063;-70
2022/04/04 02:15:21;;;;;;;48.83;19.77;;;3.40;99.90;;;;;;5048994;28;20048;-70
2022/04/04 02:17:46;;;;;;;46.75;21.25;;;3.40;99.90;;;;;;5046976;28;20124;-73
2022/04/04 02:20:11;;;;;;;45.38;20.85;;;3.50;99.90;;;;;;5048601;28;20086;-73
2022/04/04 02:22:37;;;;;;;46.67;20.80;;;3.50;99.90;;;;;;5046863;28;20037;-67
2022/04/04 02:25:03;;;;;;;52.17;19.73;;;3.40;99.90;;;;;;5048569;28;20037;-70
2022/04/04 02:27:29;;;;;;;45.75;20.58;;;3.50;99.90;;;;;;5048140;28;20041;-73
2022/04/04 02:29:57;;;;;;;51.10;21.02;;;3.40;99.90;;;;;;5056864;28;20047;-76
2022/04/04 02:32:22;;;;;;;51.40;21.88;;;3.50;99.90;;;;;;5045266;28;20045;-70
2022/04/04 02:34:48;;;;;;;49.15;21.65;;;3.50;99.90;;;;;;5048155;28;20495;-73
2022/04/04 02:37:14;;;;;;;52.25;21.35;;;3.60;99.90;;;;;;5048372;28;20123;-69
2022/04/04 02:39:40;;;;;;;47.40;19.55;;;3.60;99.90;;;;;;5026188;28;20037;-66
2022/04/04 02:42:06;;;;;;;55.58;20.80;;;3.60;99.90;;;;;;5039321;28;20048;-71
2022/04/04 02:44:32;;;;;;;53.03;21.77;;;3.70;99.90;;;;;;5046616;28;20025;-69
2022/04/04 02:46:57;;;;;;;55.00;21.88;;;3.70;99.90;;;;;;5049499;28;20494;-69
2022/04/04 02:49:24;;;;;;;52.55;21.88;;;3.70;99.90;;;;;;5048133;28;20056;-69
2022/04/04 02:51:50;;;;;;;55.78;21.75;;;3.80;99.90;;;;;;5052446;28;20045;-69
2022/04/04 02:54:16;;;;;;;59.75;24.35;;;3.80;99.90;;;;;;5051898;28;20041;-69
2022/04/04 02:56:41;;;;;;;52.13;21.98;;;3.80;99.90;;;;;;5051980;28;20044;-67
2022/04/04 02:59:08;;;;;;;51.15;22.25;;;3.90;99.90;;;;;;5052823;28;20037;-72
2022/04/04 03:01:35;;;;;;;49.80;22.73;;;3.80;99.90;;;;;;5051156;28;20033;-71
2022/04/04 03:04:01;;;;;;;55.55;24.05;;;4.00;99.90;;;;;;5050398;28;20037;-68
2022/04/04 03:06:27;;;;;;;57.00;22.88;;;4.00;99.90;;;;;;5052566;28;20407;-70
2022/04/04 03:08:52;;;;;;;52.25;22.15;;;4.00;99.90;;;;;;5051867;28;20100;-69
2022/04/04 03:11:18;;;;;;;60.65;25.42;;;4.00;99.90;;;;;;5052138;28;20064;-65
2022/04/04 03:13:44;;;;;;;54.22;21.13;;;4.10;99.90;;;;;;5052656;28;20074;-73
2022/04/04 03:16:10;;;;;;;55.08;23.52;;;4.10;99.90;;;;;;5050570;28;20043;-73
2022/04/04 03:18:35;;;;;;;50.60;23.00;;;4.00;99.90;;;;;;5049485;28;20187;-67
2022/04/04 03:21:03;;;;;;;50.83;22.58;;;4.10;99.90;;;;;;5067057;28;20033;-71
2022/04/04 03:23:29;;;;;;;54.70;21.42;;;4.10;99.90;;;;;;5049383;28;20495;-71
2022/04/04 03:25:55;;;;;;;51.60;21.35;;;4.10;99.90;;;;;;5051354;28;20033;-74
2022/04/04 03:28:21;;;;;;;47.95;22.70;;;4.20;99.90;;;;;;5051857;28;20047;-68
2022/04/04 03:30:48;;;;;;;54.13;22.25;;;4.10;99.90;;;;;;5047705;28;20029;-74
2022/04/04 03:33:14;;;;;;;52.10;24.50;;;4.20;99.90;;;;;;5035202;28;20421;-69
2022/04/04 03:35:40;;;;;;;48.13;21.80;;;4.30;99.90;;;;;;5051871;28;20041;-70
2022/04/04 03:38:07;;;;;;;55.28;22.25;;;4.20;99.90;;;;;;5050101;28;20043;-68
2022/04/04 03:40:33;;;;;;;53.83;23.33;;;4.20;99.90;;;;;;5051354;28;20055;-65
2022/04/04 03:43:00;;;;;;;50.35;22.05;;;4.20;99.90;;;;;;5049481;28;20032;-71
2022/04/04 03:45:26;;;;;;;51.50;23.13;;;4.30;99.90;;;;;;5047473;28;20045;-68
2022/04/04 03:47:52;;;;;;;49.80;21.85;;;4.30;99.90;;;;;;5052498;28;20397;-67
2022/04/04 03:50:18;;;;;;;51.83;22.17;;;4.30;99.90;;;;;;5027954;28;20033;-68
2022/04/04 03:52:47;;;;;;;49.92;21.95;;;4.30;99.90;;;;;;5065216;28;20094;-71
2022/04/04 03:55:13;;;;;;;51.13;23.15;;;4.30;99.90;;;;;;5038743;28;20033;-67
2022/04/04 03:57:40;;;;;;;51.55;22.17;;;4.40;99.90;;;;;;5067860;28;20040;-67
2022/04/04 04:00:07;;;;;;;52.80;22.73;;;4.50;99.90;;;;;;5062240;28;20127;-69
2022/04/04 04:02:34;;;;;;;56.22;21.90;;;4.40;99.90;;;;;;5052003;28;20387;-65
2022/04/04 04:05:00;;;;;;;47.47;22.90;;;4.50;99.90;;;;;;5044299;28;20040;-67
2022/04/04 04:07:26;;;;;;;50.15;22.63;;;4.40;99.90;;;;;;5050795;28;20044;-68
2022/04/04 04:09:52;;;;;;;51.20;22.95;;;4.50;99.90;;;;;;5043254;28;20038;-69
2022/04/04 04:12:20;;;;;;;52.42;23.17;;;4.50;99.90;;;;;;5044818;28;20041;-66
2022/04/04 04:14:46;;;;;;;45.28;20.75;;;4.60;99.90;;;;;;5031707;28;20041;-67
2022/04/04 04:17:13;;;;;;;49.92;22.08;;;4.50;99.90;;;;;;5051160;28;20055;-67
2022/04/04 04:22:23;;;;;;;57.00;23.65;;;4.60;99.90;;;;;;5057359;28;20046;-67
2022/04/04 04:24:48;;;;;;;54.15;22.60;;;4.60;99.90;;;;;;5021524;28;20033;-65
2022/04/04 04:27:15;;;;;;;48.17;22.88;;;4.50;99.90;;;;;;5052418;28;20033;-66
2022/04/04 04:29:40;;;;;;;52.35;25.02;;;4.60;99.90;;;;;;5051698;28;20480;-69
2022/04/04 04:32:08;;;;;;;58.20;24.55;;;4.60;99.90;;;;;;5051106;28;20037;-69
2022/04/04 04:34:34;;;;;;;60.22;24.02;;;4.60;99.90;;;;;;5051723;28;20523;-73
2022/04/04 04:37:00;;;;;;;55.20;24.83;;;4.50;99.90;;;;;;5050046;28;20499;-70
2022/04/04 04:39:26;;;;;;;55.55;24.92;;;4.50;99.90;;;;;;5034782;28;20044;-67
2022/04/04 04:41:52;;;;;;;49.85;23.30;;;4.60;99.90;;;;;;5035007;28;20032;-69
2022/04/04 04:44:17;;;;;;;57.42;24.77;;;4.60;99.90;;;;;;5035154;28;20091;-73
2022/04/04 04:46:43;;;;;;;60.63;25.88;;;4.50;99.90;;;;;;5050176;28;20041;-68
2022/04/04 04:49:10;;;;;;;57.35;24.65;;;4.50;99.90;;;;;;5050857;28;20439;-71
2022/04/04 04:51:35;;;;;;;60.65;26.27;;;4.60;99.90;;;;;;5051582;28;20080;-70
2022/04/04 04:54:02;;;;;;;57.75;27.17;;;4.60;99.90;;;;;;5051493;28;20146;-76
2022/04/04 04:56:27;;;;;;;58.38;25.98;;;4.60;99.90;;;;;;5065795;28;20055;-72
2022/04/04 04:58:53;;;;;;;55.00;23.88;;;4.60;99.90;;;;;;5058224;28;20115;-70
2022/04/04 05:01:22;;;;;;;55.33;25.27;;;4.60;99.90;;;;;;5051401;28;21288;-71
2022/04/04 05:03:49;;;;;;;58.75;27.40;;;4.60;99.90;;;;;;5051257;28;20128;-70
2022/04/04 05:06:15;;;;;;;53.08;25.95;;;4.60;99.90;;;;;;5050374;28;20045;-70
2022/04/04 05:08:40;;;;;;;59.70;24.25;;;4.60;99.90;;;;;;5050649;28;20033;-70
2022/04/04 05:11:06;;;;;;;54.97;25.75;;;4.70;99.90;;;;;;5034825;28;20071;-77
2022/04/04 05:13:31;;;;;;;56.50;26.55;;;4.60;99.90;;;;;;5051355;28;20044;-68
2022/04/04 05:15:58;;;;;;;55.78;25.88;;;4.60;99.90;;;;;;5036563;28;20479;-72
2022/04/04 05:18:24;;;;;;;52.78;25.15;;;4.70;99.90;;;;;;5051920;28;20065;-70
2022/04/04 05:20:50;;;;;;;54.63;24.83;;;4.70;99.90;;;;;;5050592;28;20063;-68
2022/04/04 05:23:16;;;;;;;57.58;25.25;;;4.70;99.90;;;;;;5050174;28;20115;-71
2022/04/04 05:25:42;;;;;;;52.22;24.20;;;4.70;99.90;;;;;;5051002;28;20040;-70
2022/04/04 05:28:10;;;;;;;51.45;24.00;;;4.80;99.90;;;;;;5049998;28;20033;-74
2022/04/04 05:30:36;;;;;;;50.25;24.42;;;4.70;99.90;;;;;;5032404;28;20458;-74
2022/04/04 05:33:01;;;;;;;50.30;22.67;;;4.80;99.90;;;;;;5033039;28;20045;-69
2022/04/04 05:35:27;;;;;;;45.53;24.00;;;4.80;99.90;;;;;;5029954;28;20504;-70
2022/04/04 05:37:54;;;;;;;53.58;24.50;;;4.90;99.90;;;;;;5045395;28;20033;-73
2022/04/04 05:40:24;;;;;;;51.20;23.98;;;4.80;99.90;;;;;;5049710;28;20451;-70
2022/04/04 05:42:50;;;;;;;51.05;23.83;;;4.90;99.90;;;;;;5050595;28;20029;-71
2022/04/04 05:45:15;;;;;;;48.63;21.30;;;4.90;99.90;;;;;;5050618;28;20068;-70
2022/04/04 05:47:44;;;;;;;50.70;23.33;;;5.00;99.90;;;;;;5048897;28;20044;-68
2022/04/04 05:50:09;;;;;;;52.50;22.05;;;5.00;99.90;;;;;;5033608;28;20044;-68
2022/04/04 05:52:37;;;;;;;50.40;21.35;;;5.00;99.90;;;;;;5034844;28;20535;-71
2022/04/04 05:55:04;;;;;;;45.15;22.50;;;5.00;99.90;;;;;;5041947;28;20075;-73
2022/04/04 05:57:32;;;;;;;48.13;21.92;;;5.00;99.90;;;;;;5050110;28;20037;-68
2022/04/04 05:59:58;;;;;;;47.70;21.05;;;5.00;99.90;;;;;;5049464;28;20041;-67
2022/04/04 06:02:24;;;;;;;48.08;21.52;;;5.00;99.90;;;;;;5049731;28;20033;-70
2022/04/04 06:04:50;;;;;;;43.38;20.60;;;5.00;99.90;;;;;;5050104;28;20068;-71
2022/04/04 06:07:17;;;;;;;42.40;21.20;;;5.00;99.90;;;;;;5050626;28;20044;-72
2022/04/04 06:09:43;;;;;;;43.55;20.65;;;5.00;99.90;;;;;;5031727;28;20060;-70
2022/04/04 06:12:09;;;;;;;46.75;20.35;;;5.00;99.90;;;;;;5033414;28;20041;-73
2022/04/04 06:14:35;;;;;;;45.55;20.40;;;4.90;99.90;;;;;;5033395;28;20040;-71
2022/04/04 06:17:03;;;;;;;48.30;23.27;;;4.90;99.90;;;;;;5049219;28;20072;-68
2022/04/04 06:19:29;;;;;;;51.30;22.10;;;4.90;99.90;;;;;;5049712;28;20041;-73
2022/04/04 06:21:54;;;;;;;48.58;21.17;;;4.90;99.90;;;;;;5032638;28;20064;-66
2022/04/04 06:24:20;;;;;;;45.75;21.27;;;4.80;99.90;;;;;;5050219;28;20383;-69
2022/04/04 06:26:46;;;;;;;49.60;21.05;;;4.90;99.90;;;;;;5048780;28;20044;-67
2022/04/04 06:29:12;;;;;;;48.47;22.33;;;4.90;99.90;;;;;;5049249;28;20045;-72
2022/04/04 06:31:38;;;;;;;44.55;21.52;;;4.80;99.90;;;;;;5049979;28;20180;-72
2022/04/04 06:34:08;;;;;;;56.28;24.17;;;4.80;99.90;;;;;;5032367;28;20067;-71
2022/04/04 06:36:34;;;;;;;44.95;20.13;;;4.80;99.90;;;;;;5047731;28;20053;-70
2022/04/04 06:38:59;;;;;;;49.70;24.30;;;4.80;99.90;;;;;;5049835;28;20036;-68
2022/04/04 06:41:25;;;;;;;48.90;24.20;;;4.80;99.90;;;;;;5032005;28;20475;-69
2022/04/04 06:43:51;;;;;;;49.30;23.23;;;4.90;99.90;;;;;;5032922;28;20048;-69
2022/04/04 06:46:18;;;;;;;52.90;26.15;;;4.90;99.90;;;;;;5046745;28;20042;-68
2022/04/04 06:48:49;;;;;;;52.40;24.75;;;4.90;99.90;;;;;;5052969;28;20045;-72
2022/04/04 06:51:15;;;;;;;54.30;24.85;;;5.00;99.90;;;;;;5039145;28;20060;-68
2022/04/04 06:53:40;;;;;;;58.58;29.02;;;4.90;99.90;;;;;;5046903;28;20034;-71
2022/04/04 06:56:06;;;;;;;60.47;24.80;;;4.90;99.90;;;;;;5047723;28;20048;-71
2022/04/04 06:58:31;;;;;;;53.45;23.40;;;4.90;99.90;;;;;;5047887;28;20040;-70
2022/04/04 07:00:57;;;;;;;47.50;20.67;;;4.90;99.90;;;;;;5061144;28;20037;-69
2022/04/04 07:03:23;;;;;;;53.78;26.38;;;5.00;99.90;;;;;;5049301;28;20396;-70
2022/04/04 07:05:49;;;;;;;53.08;25.38;;;5.00;99.90;;;;;;5049453;28;20044;-71
2022/04/04 07:08:14;;;;;;;55.40;24.65;;;4.90;99.90;;;;;;5048074;28;20543;-72
2022/04/04 07:10:40;;;;;;;57.97;26.90;;;4.90;99.90;;;;;;5049594;28;20181;-75
2022/04/04 07:13:05;;;;;;;57.53;24.20;;;5.00;99.90;;;;;;5040237;28;20438;-69
2022/04/04 07:15:32;;;;;;;55.03;25.20;;;4.90;99.90;;;;;;5040858;28;20077;-74
2022/04/04 07:17:57;;;;;;;53.58;23.48;;;4.90;99.90;;;;;;5043938;28;20399;-73
2022/04/04 07:20:23;;;;;;;62.15;26.05;;;5.10;99.90;;;;;;5047033;28;20264;-76
2022/04/04 07:22:49;;;;;;;64.97;28.70;;;5.10;99.90;;;;;;5047986;28;20040;-69
2022/04/04 07:25:14;;;;;;;59.28;25.38;;;5.10;99.90;;;;;;5048312;28;20041;-70
2022/04/04 07:27:44;;;;;;;64.10;27.10;;;5.10;99.90;;;;;;5035235;28;20043;-69
2022/04/04 07:30:13;;;;;;;62.22;27.15;;;5.10;99.90;;;;;;5052241;28;20033;-70
2022/04/04 07:32:40;;;;;;;62.97;26.10;;;5.10;99.90;;;;;;5050464;28;20037;-70
2022/04/04 07:35:11;;;;;;;66.70;28.13;;;5.10;99.90;;;;;;5032128;28;20396;-69
2022/04/04 07:37:46;;;;;;;72.70;30.25;;;5.20;99.90;;;;;;5049605;28;20041;-69
2022/04/04 07:40:14;;;;;;;68.50;30.52;;;5.00;99.90;;;;;;5043335;28;20083;-70
2022/04/04 07:42:42;;;;;;;69.25;29.90;;;5.20;99.90;;;;;;5047026;28;20037;-70
2022/04/04 07:45:10;;;;;;;68.00;29.48;;;5.00;99.90;;;;;;5042139;28;20356;-72
2022/04/04 07:47:37;;;;;;;76.43;32.90;;;5.10;99.90;;;;;;5031237;28;20037;-68
2022/04/04 07:50:04;;;;;;;72.60;29.75;;;5.00;99.90;;;;;;5035369;28;20037;-71
2022/04/04 07:52:30;;;;;;;76.65;32.22;;;5.20;99.90;;;;;;5051856;28;20044;-67
2022/04/04 07:54:56;;;;;;;66.82;29.35;;;5.20;99.90;;;;;;5035890;28;20041;-71
2022/04/04 07:57:21;;;;;;;81.47;38.22;;;5.00;99.90;;;;;;5052590;28;20120;-70
2022/04/04 07:59:49;;;;;;;71.15;30.30;;;5.10;99.90;;;;;;5051188;28;20514;-71
2022/04/04 08:02:15;;;;;;;71.90;35.03;;;5.20;99.90;;;;;;5035571;28;20041;-73
2022/04/04 08:04:41;;;;;;;80.30;37.28;;;5.10;99.90;;;;;;5053103;28;20045;-68
2022/04/04 08:07:06;;;;;;;70.22;31.30;;;5.30;99.90;;;;;;5035644;28;20510;-75
2022/04/04 08:09:32;;;;;;;68.35;30.65;;;5.30;99.90;;;;;;5050943;28;20057;-68
2022/04/04 08:11:57;;;;;;;63.20;30.95;;;5.30;99.90;;;;;;5052338;28;20041;-71
2022/04/04 08:14:23;;;;;;;65.90;33.90;;;5.20;99.90;;;;;;5022612;28;20480;-70
2022/04/04 08:16:50;;;;;;;61.38;29.52;;;5.40;99.90;;;;;;5048862;28;20149;-72
2022/04/04 08:19:17;;;;;;;67.95;31.63;;;5.40;99.90;;;;;;5051753;28;20629;-69
2022/04/04 08:21:44;;;;;;;64.00;27.98;;;5.30;99.90;;;;;;5052588;28;20439;-68
2022/04/04 08:24:10;;;;;;;64.60;24.52;;;5.30;99.90;;;;;;5051421;28;20491;-71
2022/04/04 08:26:37;;;;;;;65.28;30.75;;;5.40;99.90;;;;;;5051818;28;20071;-71
2022/04/04 08:29:03;;;;;;;61.25;30.10;;;5.30;99.90;;;;;;5052164;28;20506;-70
2022/04/04 08:31:28;;;;;;;56.00;31.80;;;5.40;99.90;;;;;;5051960;28;20037;-71
2022/04/04 08:33:54;;;;;;;60.40;30.75;;;5.50;99.90;;;;;;5050927;28;20037;-73
2022/04/04 08:36:20;;;;;;;66.03;25.98;;;5.50;99.90;;;;;;5051836;28;20033;-69
2022/04/04 08:38:46;;;;;;;68.05;30.48;;;5.40;99.90;;;;;;5050000;28;20060;-72
2022/04/04 08:41:12;;;;;;;61.75;25.15;;;5.40;99.90;;;;;;5052065;28;20072;-70
2022/04/04 08:43:43;;;;;;;58.17;24.73;;;5.30;99.90;;;;;;5051487;28;20144;-70
2022/04/04 08:46:09;;;;;;;53.57;24.60;;;5.50;99.90;;;;;;5048492;28;20467;-70
2022/04/04 08:48:36;;;;;;;60.67;24.88;;;5.40;99.90;;;;;;5041521;28;20115;-72
2022/04/04 08:51:02;;;;;;;43.75;21.02;;;5.60;99.90;;;;;;5067424;28;20080;-67
2022/04/04 08:53:28;;;;;;;37.83;16.73;;;5.60;99.90;;;;;;5051343;28;20064;-67
2022/04/04 08:55:56;;;;;;;40.60;19.77;;;5.70;99.90;;;;;;5050507;28;20045;-72
2022/04/04 08:58:21;;;;;;;32.03;17.45;;;5.40;99.90;;;;;;5051154;28;20037;-70
2022/04/04 09:00:47;;;;;;;42.67;17.13;;;5.60;99.90;;;;;;5051514;28;20120;-74
2022/04/04 09:03:19;;;;;;;30.92;15.02;;;5.50;99.90;;;;;;5047337;28;20040;-70
2022/04/04 09:05:54;;;;;;;43.50;18.65;;;5.70;99.90;;;;;;5051455;28;20110;-70
2022/04/04 09:08:20;;;;;;;33.75;18.50;;;5.70;99.90;;;;;;5051047;28;20037;-70
2022/04/04 09:10:47;;;;;;;34.00;16.02;;;5.50;99.90;;;;;;5067887;28;20053;-72
2022/04/04 09:13:17;;;;;;;30.02;14.63;;;5.50;99.90;;;;;;5067626;28;20052;-74
2022/04/04 09:16:00;;;;;;;27.80;13.45;;;5.50;99.90;;;;;;5051211;28;20037;-72
2022/04/04 09:18:41;;;;;;;27.33;14.20;;;5.50;99.90;;;;;;5048618;28;20067;-70
2022/04/04 09:21:12;;;;;;;25.02;11.27;;;5.60;99.90;;;;;;5047851;28;20041;-67
2022/04/04 09:23:48;;;;;;;27.50;11.20;;;5.50;99.90;;;;;;5047914;28;20291;-72
2022/04/04 09:26:32;;;;;;;24.85;12.88;;;5.40;99.90;;;;;;5033292;28;20041;-74
2022/04/04 09:29:01;;;;;;;26.70;13.25;;;5.60;99.90;;;;;;5050746;28;20082;-71
2022/04/04 09:31:27;;;;;;;26.27;14.82;;;5.40;99.90;;;;;;5050193;28;20049;-70
2022/04/04 09:33:57;;;;;;;27.42;13.18;;;5.60;99.90;;;;;;5045349;28;20162;-71
2022/04/04 09:36:24;;;;;;;29.48;16.35;;;5.60;99.90;;;;;;5067490;28;20388;-67
2022/04/04 09:39:08;;;;;;;25.15;15.07;;;5.70;99.90;;;;;;5047569;28;20083;-71
2022/04/04 09:41:33;;;;;;;30.10;12.38;;;5.70;99.90;;;;;;5051150;28;20522;-72
2022/04/04 09:44:05;;;;;;;27.77;14.13;;;5.60;99.90;;;;;;5051108;28;20040;-74
2022/04/04 09:46:33;;;;;;;26.75;13.98;;;5.80;99.90;;;;;;5049804;28;20037;-73
2022/04/04 09:49:20;;;;;;;25.25;12.88;;;5.60;99.90;;;;;;5024803;28;20048;-70
2022/04/04 09:51:49;;;;;;;27.67;14.00;;;5.60;99.90;;;;;;5049478;28;20128;-73
2022/04/04 09:54:23;;;;;;;25.45;12.43;;;5.80;99.90;;;;;;5049308;28;20048;-71
2022/04/04 09:56:53;;;;;;;23.60;13.02;;;5.80;99.90;;;;;;5050622;28;20053;-72
2022/04/04 09:59:19;;;;;;;27.95;12.98;;;5.80;99.90;;;;;;5045401;28;20029;-69
2022/04/04 10:01:46;;;;;;;26.63;15.68;;;5.60;99.90;;;;;;5032199;28;20480;-72
2022/04/04 10:04:13;;;;;;;28.55;12.52;;;5.60;99.90;;;;;;5014164;28;20132;-68
2022/04/04 10:06:40;;;;;;;28.85;13.35;;;5.80;99.90;;;;;;5030547;28;20138;-70
2022/04/04 10:09:06;;;;;;;27.55;14.38;;;5.80;99.90;;;;;;5029135;28;20103;-74
2022/04/04 10:11:35;;;;;;;25.48;11.90;;;5.80;99.90;;;;;;5047508;28;20493;-70
2022/04/04 10:14:02;;;;;;;27.70;15.43;;;5.90;99.90;;;;;;5033322;28;20403;-68
2022/04/04 10:16:28;;;;;;;24.00;13.23;;;6.00;99.90;;;;;;5050098;28;20143;-71
2022/04/04 10:18:55;;;;;;;23.00;11.02;;;5.80;99.90;;;;;;5058748;28;20124;-71
2022/04/04 10:21:21;;;;;;;20.88;10.40;;;5.80;99.90;;;;;;5013730;28;20044;-72
2022/04/04 10:23:50;;;;;;;26.92;13.32;;;6.00;99.90;;;;;;5065033;28;20043;-72
2022/04/04 10:26:19;;;;;;;25.42;11.70;;;6.00;99.90;;;;;;5048647;28;20051;-70
2022/04/04 10:28:47;;;;;;;26.25;13.40;;;6.10;99.90;;;;;;5044904;28;20044;-71
2022/04/04 10:31:20;;;;;;;25.95;10.80;;;6.10;99.90;;;;;;5050155;28;20049;-69
2022/04/04 10:33:48;;;;;;;26.65;12.75;;;6.00;99.90;;;;;;5045455;28;20128;-72
2022/04/04 10:36:16;;;;;;;28.00;13.13;;;6.20;99.90;;;;;;5049130;28;20406;-72
2022/04/04 10:38:44;;;;;;;25.88;14.55;;;6.10;99.90;;;;;;5049565;28;20068;-69
2022/04/04 10:41:10;;;;;;;28.45;15.38;;;6.00;99.90;;;;;;5047091;28;20434;-70
2022/04/04 10:43:43;;;;;;;25.63;11.43;;;6.10;99.90;;;;;;5049532;28;20090;-74
2022/04/04 10:46:11;;;;;;;26.52;12.00;;;6.20;99.90;;;;;;5032583;28;20056;-72
2022/04/04 10:48:39;;;;;;;30.73;13.30;;;6.50;99.90;;;;;;5048198;28;20531;-69
2022/04/04 10:51:28;;;;;;;33.47;13.57;;;6.40;99.90;;;;;;5047975;28;20225;-72
2022/04/04 10:54:11;;;;;;;26.10;12.00;;;6.50;99.90;;;;;;5048687;28;20033;-72
2022/04/04 10:56:45;;;;;;;27.08;12.88;;;6.50;99.90;;;;;;5030488;28;20051;-70
2022/04/04 10:59:19;;;;;;;30.52;14.68;;;6.30;99.90;;;;;;5028413;28;20128;-71
2022/04/04 11:01:54;;;;;;;33.10;12.75;;;6.30;99.90;;;;;;5022440;28;20083;-70
2022/04/04 11:04:28;;;;;;;27.67;12.75;;;6.50;99.90;;;;;;5057711;28;20036;-72
2022/04/04 11:10:06;;;;;;;29.52;12.88;;;6.60;99.90;;;;;;5053799;28;20091;-71
2022/04/04 11:12:55;;;;;;;22.38;11.10;;;6.70;99.90;;;;;;5053548;28;20048;-71
2022/04/04 11:15:44;;;;;;;25.80;12.15;;;6.50;99.90;;;;;;5051847;28;20098;-69
2022/04/04 11:18:12;;;;;;;24.38;11.57;;;6.80;99.90;;;;;;5033484;28;20435;-68
2022/04/04 11:20:50;;;;;;;19.90;11.20;;;6.70;99.90;;;;;;5032935;28;20037;-68
2022/04/04 11:23:17;;;;;;;23.63;10.27;;;6.60;99.90;;;;;;5050272;28;20038;-72
2022/04/04 11:25:54;;;;;;;23.90;11.65;;;6.70;99.90;;;;;;5033511;28;20397;-72
2022/04/04 11:28:22;;;;;;;22.17;11.85;;;6.70;99.90;;;;;;5054021;28;20041;-73
2022/04/04 11:31:01;;;;;;;23.65;10.63;;;6.70;99.90;;;;;;5051770;28;20352;-70
2022/04/04 11:33:28;;;;;;;19.05;9.48;;;6.70;99.90;;;;;;5052988;28;20041;-71
2022/04/04 11:35:54;;;;;;;18.90;9.75;;;6.80;99.90;;;;;;5056853;28;20041;-71
2022/04/04 11:38:20;;;;;;;17.77;10.32;;;6.90;99.90;;;;;;5048885;28;20123;-72
2022/04/04 11:40:53;;;;;;;24.45;10.57;;;6.70;99.90;;;;;;5064038;28;20051;-72
2022/04/04 11:43:21;;;;;;;17.83;8.57;;;6.80;99.90;;;;;;5067730;28;20853;-71
2022/04/04 11:45:49;;;;;;;17.63;8.10;;;7.00;99.90;;;;;;5047313;28;20041;-74
2022/04/04 11:48:23;;;;;;;16.75;9.23;;;6.70;99.90;;;;;;5028470;28;20044;-73
2022/04/04 11:50:57;;;;;;;17.42;9.43;;;7.00;99.90;;;;;;5052232;28;20098;-72
2022/04/04 11:53:25;;;;;;;22.00;9.38;;;7.00;99.90;;;;;;5052306;28;20074;-70
2022/04/04 11:55:56;;;;;;;18.40;9.75;;;6.80;99.90;;;;;;5051646;28;20515;-71
2022/04/04 11:58:25;;;;;;;19.77;8.27;;;7.10;99.90;;;;;;5036041;28;20103;-70
2022/04/04 12:00:54;;;;;;;15.63;7.28;;;6.90;99.90;;;;;;5050973;28;20048;-71
2022/04/04 12:03:22;;;;;;;16.60;8.60;;;7.20;99.90;;;;;;5052873;28;20055;-71
2022/04/04 12:05:49;;;;;;;15.68;8.60;;;7.30;99.90;;;;;;5052308;28;20037;-72
2022/04/04 12:08:16;;;;;;;16.40;7.88;;;7.40;99.90;;;;;;5035785;28;20041;-73
2022/04/04 12:10:45;;;;;;;13.27;8.27;;;7.10;99.90;;;;;;5067880;28;20084;-70
2022/04/04 12:13:13;;;;;;;14.88;8.13;;;7.20;99.90;;;;;;5035251;28;20041;-70
2022/04/04 12:15:42;;;;;;;14.63;7.68;;;7.40;99.90;;;;;;5048815;28;20537;-73
2022/04/04 12:18:08;;;;;;;13.30;7.25;;;7.40;99.90;;;;;;5068918;28;20037;-71
2022/04/04 12:20:45;;;;;;;10.77;6.53;;;7.40;99.90;;;;;;5051241;28;20048;-70
2022/04/04 12:26:04;;;;;;;18.33;8.02;;;7.10;99.90;;;;;;5049110;28;20049;-70
2022/04/04 12:28:35;;;;;;;15.43;7.53;;;7.10;99.90;;;;;;5050441;28;20041;-70
2022/04/04 12:31:19;;;;;;;13.77;8.00;;;7.20;99.90;;;;;;5066575;28;20124;-67
2022/04/04 12:33:45;;;;;;;13.90;7.43;;;7.20;99.90;;;;;;5046318;28;20123;-70
2022/04/04 12:36:12;;;;;;;12.48;8.13;;;7.40;99.90;;;;;;5032150;28;20077;-69
2022/04/04 12:38:40;;;;;;;14.75;8.43;;;7.10;99.90;;;;;;5029170;28;20064;-70
2022/04/04 12:41:07;;;;;;;14.98;8.10;;;7.40;99.90;;;;;;5051624;28;20044;-72
2022/04/04 12:43:34;;;;;;;12.93;7.13;;;7.50;99.90;;;;;;5051821;28;20601;-66
2022/04/04 12:46:00;;;;;;;11.57;6.57;;;7.30;99.90;;;;;;5051611;28;20041;-67
2022/04/04 12:48:40;;;;;;;11.43;6.10;;;7.30;99.90;;;;;;5051198;28;20111;-69
2022/04/04 12:51:23;;;;;;;15.18;6.68;;;7.40;99.90;;;;;;5051830;28;20052;-73